Pagina principale
METAR-TAF:

METAR-TAF

Aeroporti :

Altenstadt, Germania

latitudine: 47-50N, longitudine: 010-52E, altezza: 739 m

Osservazione

Il bollettino è stato emesso 1 ora e 8 minuti fa, alle 21:20 UTC
Vento 10 kt da est
Temperature -2°C
Umidità 93%
Pressione 1005 hPa

METAR: ETHA 192120Z AUTO 10010KT //// // ////// M02/M03 Q1005 ///

Ora: 23:28 (22:28 UTC)

Previsione

Il bollettino è stato emesso 5 ore e 15 minuti fa, alle 17:13 UTC
Previsione valida dal 19 alle 15 UTC al 19 alle 24 UTC
Vento 12 kt da est
Visibilità 10 km o più
Cielo coperto ad un'altezza di 700 ft
Evoluzione graduale
dal 19 alle 18 UTC al 19 alle 20 UTC
Vento 12 kt da est
Visibilità: 1720 m
ad un'altezza di 100 ft
nebbia che ghiaccia

TAF: ETHA 191713Z 1915/1924 08012KT 9999 NSW OVC007 BECMG 1918/1920 08012KT 0500 FZFG VV001 CANCEL 1720

Osservazioni e previsioni meteorologiche di più di 4000 aeroporti (messaggi METAR e TAF).

Le stazioni disponibili sono rappresentate dai dischi gialli e rossi sulla carta.

Puntare il mouse per vedere il nome della stazione.

Clicca sopra per visualizzare le osservazioni e previsioni meteorologiche.

Per cambiare la mappa : fare clic sui pulsanti verdi con una croce nera per ingrandire, il pulsante verde con un trattino per diminuire, o sulla freccia verde per le mappe adiacenti.


METAR-TAF: